Time;durP1;ratioP1;P1;durP2;ratioP2;P2;SDS_P1;SDS_P2;PMS_P1;PMS_P2;Temp;Humidity;BMP_temperature;BMP_pressure;BME280_temperature;BME280_humidity;BME280_pressure;Samples;Min_cycle;Max_cycle;Signal;HPM_P1;HPM_P2
2021/12/18 00:02:14;;;;;;;19.83;9.27;;;;;;;5.08;100.00;102141.03;5108461;28;20023;-63
2021/12/18 00:07:14;;;;;;;17.48;9.88;;;;;;;4.82;100.00;102106.13;4974383;28;20102;-88
2021/12/18 00:09:41;;;;;;;16.55;8.10;;;;;;;4.81;100.00;102106.97;4970198;28;20145;-88
2021/12/18 00:12:08;;;;;;;21.70;9.88;;;;;;;4.84;100.00;102114.94;4953494;28;20105;-88
2021/12/18 00:14:34;;;;;;;17.75;8.68;;;;;;;4.90;100.00;102130.94;4970041;28;20030;-88
2021/12/18 00:17:00;;;;;;;17.83;9.18;;;;;;;4.63;100.00;102101.25;4970341;28;20026;-88
2021/12/18 00:19:27;;;;;;;19.92;9.63;;;;;;;4.72;100.00;102101.50;4970315;28;20031;-89
2021/12/18 00:21:54;;;;;;;19.30;8.95;;;;;;;4.81;100.00;102117.53;4971051;28;20441;-88
2021/12/18 00:24:21;;;;;;;17.20;9.57;;;;;;;4.73;100.00;102116.44;4959044;28;20024;-88
2021/12/18 00:26:47;;;;;;;18.88;9.13;;;;;;;4.69;100.00;102118.97;4950522;29;20027;-89
2021/12/18 00:29:13;;;;;;;20.73;9.30;;;;;;;4.67;100.00;102116.31;4935324;29;20505;-89
2021/12/18 00:31:54;;;;;;;16.23;7.63;;;;;;;4.41;100.00;102093.69;4958860;28;20125;-88
2021/12/18 00:34:20;;;;;;;13.82;7.85;;;;;;;4.50;100.00;102116.75;4969415;28;20054;-88
2021/12/18 00:36:45;;;;;;;17.45;8.25;;;;;;;4.49;100.00;102129.03;4972542;28;20058;-89
2021/12/18 00:39:12;;;;;;;15.50;8.02;;;;;;;4.40;100.00;102110.34;4989877;28;20032;-88
2021/12/18 00:44:12;;;;;;;19.55;10.18;;;;;;;4.17;100.00;102082.50;4968444;28;20054;-89
2021/12/18 00:46:41;;;;;;;17.23;8.90;;;;;;;4.40;100.00;102120.88;4967315;28;20023;-89
2021/12/18 00:49:08;;;;;;;18.95;9.40;;;;;;;4.23;100.00;102109.03;4970230;28;20023;-88
2021/12/18 00:51:34;;;;;;;17.60;9.90;;;;;;;4.26;100.00;102103.84;4971026;28;20018;-88
2021/12/18 00:54:01;;;;;;;18.05;9.40;;;;;;;4.15;100.00;102088.59;4969209;28;20266;-88
2021/12/18 00:56:26;;;;;;;19.45;10.23;;;;;;;4.22;100.00;102101.09;4969403;28;20027;-89
2021/12/18 00:58:52;;;;;;;16.92;9.38;;;;;;;4.36;100.00;102126.94;4952699;28;20449;-89
2021/12/18 01:01:20;;;;;;;18.02;9.07;;;;;;;4.31;100.00;102133.81;4968947;28;20422;-88
2021/12/18 01:03:48;;;;;;;17.17;8.90;;;;;;;3.69;100.00;102033.84;4971806;28;20478;-89
2021/12/18 01:06:15;;;;;;;20.33;9.43;;;;;;;4.25;100.00;102133.63;4961405;28;20046;-89
2021/12/18 01:08:41;;;;;;;20.70;9.00;;;;;;;4.25;100.00;102128.38;4942598;28;20030;-88
2021/12/18 01:13:38;;;;;;;22.15;9.77;;;;;;;3.99;100.00;102087.28;4975484;28;20105;-88
2021/12/18 01:16:14;;;;;;;19.58;10.02;;;;;;;4.08;100.00;102111.25;4946304;28;20037;-89
2021/12/18 01:24:09;;;;;;;20.27;10.35;;;;;;;3.83;100.00;102093.91;4975089;28;20089;-89
2021/12/18 01:26:34;;;;;;;21.02;9.93;;;;;;;3.85;100.00;102104.47;4973324;28;20471;-89
2021/12/18 01:29:00;;;;;;;19.73;9.75;;;;;;;3.70;100.00;102094.41;4973794;28;20033;-88
2021/12/18 01:31:26;;;;;;;16.58;9.05;;;;;;;3.97;100.00;102147.81;4963369;28;20027;-89
2021/12/18 01:33:51;;;;;;;22.75;9.05;;;;;;;3.36;100.00;102075.84;4974384;28;20038;-89
2021/12/18 01:36:17;;;;;;;19.05;9.50;;;;;;;3.88;100.00;102149.28;4956103;28;20035;-88
2021/12/18 01:38:42;;;;;;;22.65;10.93;;;;;;;3.63;100.00;102107.31;4962321;28;20031;-88
2021/12/18 01:41:08;;;;;;;18.40;9.88;;;;;;;3.35;100.00;102041.63;4953260;28;20035;-89
2021/12/18 01:51:46;;;;;;;21.23;10.30;;;;;;;3.89;100.00;102132.63;4976008;28;20052;-89
2021/12/18 01:54:13;;;;;;;18.75;9.68;;;;;;;3.81;100.00;102126.28;4957176;28;20030;-88
2021/12/18 01:56:39;;;;;;;20.23;10.63;;;;;;;3.74;100.00;102135.72;4955823;28;20520;-88
2021/12/18 01:59:04;;;;;;;20.63;11.63;;;;;;;3.64;100.00;102109.13;4956528;28;20055;-89
2021/12/18 02:01:30;;;;;;;17.90;10.57;;;;;;;3.76;100.00;102135.78;4968714;28;20501;-88
2021/12/18 02:03:56;;;;;;;23.00;10.82;;;;;;;3.84;100.00;102134.25;4953036;28;20465;-89
2021/12/18 02:06:23;;;;;;;20.33;9.32;;;;;;;3.77;100.00;102137.56;4957942;28;20490;-88
2021/12/18 02:08:48;;;;;;;21.38;11.30;;;;;;;3.81;100.00;102126.28;4956030;28;20038;-89
2021/12/18 02:22:01;;;;;;;27.98;11.65;;;;;;;3.88;100.00;102118.59;4973080;28;20058;-89
2021/12/18 02:24:29;;;;;;;26.85;11.60;;;;;;;3.84;100.00;102108.81;4956088;28;20049;-88
2021/12/18 02:26:55;;;;;;;22.85;10.43;;;;;;;3.77;100.00;102084.94;4956348;28;20023;-88
2021/12/18 02:29:21;;;;;;;21.45;10.15;;;;;;;3.99;100.00;102110.97;4954223;28;20035;-89
2021/12/18 02:31:47;;;;;;;23.38;11.88;;;;;;;3.97;100.00;102120.56;4955457;28;20030;-88
2021/12/18 02:34:22;;;;;;;23.38;11.70;;;;;;;4.03;100.00;102124.31;4955561;28;20086;-89
2021/12/18 02:36:49;;;;;;;22.85;11.23;;;;;;;4.01;100.00;102106.66;4973936;28;20167;-88
2021/12/18 02:44:39;;;;;;;26.30;12.88;;;;;;;4.15;100.00;102114.94;4965389;28;20108;-88
2021/12/18 02:47:07;;;;;;;23.92;11.52;;;;;;;4.14;100.00;102119.31;4952030;29;20059;-89
2021/12/18 02:49:32;;;;;;;25.83;11.73;;;;;;;3.90;100.00;102080.03;4938647;28;20030;-89
2021/12/18 02:51:58;;;;;;;24.25;11.25;;;;;;;3.93;100.00;102100.31;4961817;28;20089;-88
2021/12/18 02:54:25;;;;;;;25.10;12.10;;;;;;;3.98;100.00;102117.13;4936219;29;20031;-89
2021/12/18 02:56:50;;;;;;;20.77;10.27;;;;;;;3.86;100.00;102085.19;4940510;28;20018;-89
2021/12/18 02:59:17;;;;;;;22.88;10.73;;;;;;;3.96;100.00;102101.28;4945658;28;20038;-88
2021/12/18 03:01:45;;;;;;;30.65;11.95;;;;;;;3.73;100.00;102056.75;4954675;28;20037;-88
2021/12/18 03:04:28;;;;;;;25.05;13.48;;;;;;;3.52;100.00;102024.59;4972707;28;20026;-89
2021/12/18 03:06:59;;;;;;;24.02;10.60;;;;;;;3.97;100.00;102094.25;4972238;28;20073;-89
2021/12/18 03:25:30;;;;;;;27.17;11.93;;;;;;;4.21;100.00;102088.75;4971187;28;20038;-88
2021/12/18 03:28:03;;;;;;;26.65;10.98;;;;;;;4.33;100.00;102103.16;4943334;28;20093;-88
2021/12/18 03:30:29;;;;;;;26.17;11.60;;;;;;;4.14;100.00;102084.16;4936159;29;20055;-89
2021/12/18 03:32:55;;;;;;;27.48;12.52;;;;;;;4.17;100.00;102082.50;4952372;29;20093;-89
2021/12/18 03:35:22;;;;;;;24.15;11.07;;;;;;;4.15;100.00;102060.53;4967321;28;20113;-88
2021/12/18 03:37:47;;;;;;;25.02;11.95;;;;;;;4.38;100.00;102093.63;4951716;28;20027;-89
2021/12/18 03:40:17;;;;;;;24.38;11.48;;;;;;;4.55;100.00;102108.09;4935759;29;20038;-89
2021/12/18 03:42:43;;;;;;;27.30;12.32;;;;;;;4.30;100.00;102084.59;4952929;29;20058;-88
2021/12/18 03:45:11;;;;;;;28.52;11.18;;;;;;;4.57;100.00;102106.38;4953667;28;20077;-88
2021/12/18 03:47:37;;;;;;;26.42;11.82;;;;;;;4.33;100.00;102068.91;4954455;28;20027;-89
2021/12/18 03:50:04;;;;;;;27.98;11.45;;;;;;;4.56;100.00;102101.97;4955232;28;20030;-89
2021/12/18 03:52:30;;;;;;;28.92;12.55;;;;;;;4.53;100.00;102096.63;4953789;28;20054;-89
2021/12/18 03:54:55;;;;;;;24.85;12.60;;;;;;;4.40;100.00;102078.72;4961613;28;20085;-88
2021/12/18 03:57:21;;;;;;;26.30;11.65;;;;;;;4.52;100.00;102105.38;4953637;28;20096;-88
2021/12/18 03:59:47;;;;;;;31.63;13.32;;;;;;;3.86;100.00;101979.91;4971291;28;20089;-89
2021/12/18 04:02:13;;;;;;;23.77;12.00;;;;;;;4.61;100.00;102086.28;4954506;28;20022;-89
2021/12/18 04:04:38;;;;;;;29.48;11.23;;;;;;;4.53;100.00;102088.72;4953499;28;20054;-88
2021/12/18 04:07:06;;;;;;;23.73;10.40;;;;;;;4.71;100.00;102107.59;4971048;28;20486;-88
2021/12/18 04:09:32;;;;;;;30.45;13.25;;;;;;;4.29;100.00;102048.59;4954060;28;20027;-88
2021/12/18 04:11:58;;;;;;;26.58;11.93;;;;;;;4.05;100.00;102008.50;4951586;28;20086;-89
2021/12/18 04:14:23;;;;;;;28.33;13.98;;;;;;;4.42;100.00;102057.69;4934316;29;20038;-88
2021/12/18 04:16:49;;;;;;;30.02;12.82;;;;;;;4.11;100.00;102007.72;4938484;28;20749;-88
2021/12/18 04:19:14;;;;;;;30.60;12.05;;;;;;;4.74;100.00;102114.72;4941037;29;20474;-89
2021/12/18 04:21:40;;;;;;;25.30;12.00;;;;;;;4.63;100.00;102089.84;4951527;29;20023;-89
2021/12/18 04:24:07;;;;;;;25.35;11.85;;;;;;;4.83;100.00;102107.00;4951321;28;20093;-89
2021/12/18 04:26:33;;;;;;;29.17;11.43;;;;;;;4.69;100.00;102098.78;4953264;28;20050;-89
2021/12/18 04:29:01;;;;;;;30.50;12.93;;;;;;;4.22;100.00;102007.16;4953430;28;20097;-88
2021/12/18 04:31:27;;;;;;;31.15;14.57;;;;;;;4.73;100.00;102103.25;4954277;28;20023;-88
2021/12/18 04:33:53;;;;;;;28.02;12.35;;;;;;;4.76;100.00;102113.00;4951925;28;20027;-89
2021/12/18 04:36:19;;;;;;;31.08;12.32;;;;;;;4.75;100.00;102124.38;4953421;28;20042;-88
2021/12/18 04:38:44;;;;;;;28.65;12.77;;;;;;;4.66;100.00;102100.47;4953617;28;20030;-88
2021/12/18 04:41:11;;;;;;;29.85;12.13;;;;;;;4.54;100.00;102090.50;4951989;28;20094;-89
2021/12/18 04:43:37;;;;;;;34.08;13.32;;;;;;;4.49;100.00;102070.16;4966897;28;20457;-89
2021/12/18 04:46:03;;;;;;;30.17;12.48;;;;;;;4.59;100.00;102083.59;4969483;28;20041;-89
2021/12/18 04:48:28;;;;;;;28.23;12.20;;;;;;;4.43;100.00;102076.16;4961512;28;20069;-89
2021/12/18 04:50:53;;;;;;;30.15;13.77;;;;;;;4.70;100.00;102097.94;4953763;28;20022;-89
2021/12/18 04:53:19;;;;;;;29.33;13.13;;;;;;;4.22;100.00;102035.25;4954126;28;20030;-89
2021/12/18 04:55:45;;;;;;;25.33;10.77;;;;;;;4.53;100.00;102072.91;4963195;28;20105;-88
2021/12/18 04:58:10;;;;;;;30.85;12.93;;;;;;;4.02;100.00;101990.84;4966209;28;20062;-89
2021/12/18 05:00:46;;;;;;;26.10;11.50;;;;;;;4.06;100.00;102002.34;4953911;28;20026;-89
2021/12/18 05:03:13;;;;;;;32.58;12.27;;;;;;;4.67;100.00;102108.41;4951883;28;20105;-89
2021/12/18 05:05:38;;;;;;;29.30;12.25;;;;;;;4.59;100.00;102091.50;4969654;28;20129;-89
2021/12/18 05:08:05;;;;;;;28.63;11.95;;;;;;;4.74;100.00;102110.34;4969416;28;20114;-89
2021/12/18 05:10:31;;;;;;;23.95;11.18;;;;;;;4.52;100.00;102089.56;4966069;28;20051;-89
2021/12/18 05:12:56;;;;;;;26.42;11.48;;;;;;;4.25;100.00;102045.84;4969726;28;20082;-89
2021/12/18 05:15:26;;;;;;;30.73;11.30;;;;;;;4.51;100.00;102084.28;4970069;28;20498;-88
2021/12/18 05:17:51;;;;;;;31.20;13.25;;;;;;;4.70;100.00;102137.47;4951214;28;20113;-89
2021/12/18 05:20:17;;;;;;;28.55;11.27;;;;;;;4.76;100.00;102129.69;4970122;28;20113;-89
2021/12/18 05:22:42;;;;;;;28.38;11.30;;;;;;;4.69;100.00;102100.53;4953100;28;20078;-89
2021/12/18 05:25:11;;;;;;;24.67;11.57;;;;;;;4.56;100.00;102088.81;4949024;28;20027;-89
2021/12/18 05:27:36;;;;;;;26.27;11.68;;;;;;;4.63;100.00;102106.53;4969437;28;20094;-89
2021/12/18 05:30:08;;;;;;;33.08;12.30;;;;;;;4.61;100.00;102116.13;4969601;28;20027;-88
2021/12/18 05:32:34;;;;;;;25.40;12.75;;;;;;;4.72;100.00;102119.94;4933738;29;20035;-89
2021/12/18 05:35:00;;;;;;;24.58;11.93;;;;;;;4.38;100.00;102062.00;4956299;28;20027;-89
2021/12/18 05:39:51;;;;;;;36.08;13.43;;;;;;;4.63;100.00;102111.81;4951242;29;20030;-89
2021/12/18 05:42:17;;;;;;;25.35;11.20;;;;;;;3.92;100.00;101996.72;4953612;28;20110;-89
2021/12/18 05:44:45;;;;;;;23.00;10.38;;;;;;;4.60;100.00;102098.56;4951700;29;20471;-89
2021/12/18 05:47:11;;;;;;;30.23;13.30;;;;;;;4.51;100.00;102106.25;4957849;28;20042;-89
2021/12/18 05:49:36;;;;;;;28.95;12.88;;;;;;;4.63;100.00;102119.72;4937318;29;20125;-89
2021/12/18 05:52:02;;;;;;;27.35;13.70;;;;;;;3.90;100.00;101992.28;4951597;28;20118;-88
2021/12/18 05:54:28;;;;;;;31.55;12.77;;;;;;;4.51;100.00;102084.28;4946639;28;20490;-89
2021/12/18 05:56:54;;;;;;;25.75;11.27;;;;;;;4.65;100.00;102115.38;4971797;28;20022;-88
2021/12/18 05:59:22;;;;;;;36.00;13.30;;;;;;;4.61;100.00;102108.22;4965300;28;20027;-89
2021/12/18 06:01:48;;;;;;;29.90;12.68;;;;;;;3.99;100.00;101984.63;4970478;28;20493;-88
2021/12/18 06:04:13;;;;;;;26.92;12.15;;;;;;;4.62;100.00;102128.47;4973263;28;20022;-89
2021/12/18 06:06:39;;;;;;;27.60;12.73;;;;;;;4.48;100.00;102074.53;4952195;28;20071;-89
2021/12/18 06:09:05;;;;;;;25.50;11.77;;;;;;;4.53;100.00;102098.38;4964395;28;20094;-89
2021/12/18 06:11:32;;;;;;;29.95;11.38;;;;;;;4.46;100.00;102107.88;4955935;28;20030;-89
2021/12/18 06:13:57;;;;;;;30.83;12.38;;;;;;;4.37;100.00;102099.72;4956582;28;20053;-89
2021/12/18 06:16:23;;;;;;;31.00;12.90;;;;;;;4.57;100.00;102119.56;4956580;28;20420;-89
2021/12/18 06:18:50;;;;;;;26.38;11.80;;;;;;;4.67;100.00;102140.03;4972328;28;20102;-89
2021/12/18 06:21:18;;;;;;;30.08;12.25;;;;;;;4.24;100.00;102058.13;4973296;28;20058;-89
2021/12/18 06:23:46;;;;;;;32.10;12.70;;;;;;;4.69;100.00;102137.44;4971888;28;20482;-89
2021/12/18 06:26:13;;;;;;;27.63;11.25;;;;;;;4.59;100.00;102122.22;4968810;28;20542;-89
2021/12/18 06:28:39;;;;;;;24.30;11.75;;;;;;;4.47;100.00;102099.09;4961405;28;20058;-88
2021/12/18 06:31:04;;;;;;;25.88;11.10;;;;;;;4.57;100.00;102101.13;4952898;29;20061;-88
2021/12/18 06:33:30;;;;;;;26.95;11.27;;;;;;;4.71;100.00;102148.91;4955699;28;20039;-89
2021/12/18 06:35:55;;;;;;;30.98;12.95;;;;;;;4.50;100.00;102130.78;4951531;28;20877;-89
2021/12/18 06:38:21;;;;;;;25.00;10.75;;;;;;;4.68;100.00;102139.16;4954787;28;20033;-88
2021/12/18 06:40:47;;;;;;;29.23;11.55;;;;;;;4.47;100.00;102109.66;4971789;28;20502;-88
2021/12/18 06:43:13;;;;;;;30.33;12.35;;;;;;;4.51;100.00;102100.06;4936432;29;20035;-88
2021/12/18 06:45:38;;;;;;;29.77;11.25;;;;;;;4.72;100.00;102138.41;4940290;28;20122;-88
2021/12/18 06:48:05;;;;;;;29.33;11.65;;;;;;;4.74;100.00;102130.53;4968356;28;20105;-89
2021/12/18 06:50:31;;;;;;;27.90;11.60;;;;;;;4.40;100.00;102081.34;4966669;28;20037;-89
2021/12/18 06:52:57;;;;;;;29.10;12.00;;;;;;;4.64;100.00;102137.31;4959149;28;20113;-89
2021/12/18 06:55:22;;;;;;;23.77;11.35;;;;;;;4.39;100.00;102116.47;4970845;28;20118;-89
2021/12/18 06:57:48;;;;;;;26.52;11.43;;;;;;;4.65;100.00;102136.47;4971303;28;20045;-89
2021/12/18 07:00:15;;;;;;;26.42;11.77;;;;;;;4.50;100.00;102115.00;4939970;28;20097;-89
2021/12/18 07:02:44;;;;;;;24.23;11.18;;;;;;;4.64;100.00;102118.88;4968350;28;20035;-89
2021/12/18 07:05:10;;;;;;;25.33;11.80;;;;;;;4.59;100.00;102136.31;4952011;28;20146;-89
2021/12/18 07:07:36;;;;;;;29.60;12.15;;;;;;;4.61;100.00;102134.59;4953290;28;20113;-89
2021/12/18 07:10:05;;;;;;;24.92;11.40;;;;;;;4.69;100.00;102148.88;4970903;28;20019;-89
2021/12/18 07:12:32;;;;;;;31.52;11.63;;;;;;;4.48;100.00;102106.16;4955052;28;20030;-89
2021/12/18 07:14:57;;;;;;;23.38;11.50;;;;;;;4.60;100.00;102135.44;4954973;28;20038;-89
2021/12/18 07:17:23;;;;;;;29.42;12.80;;;;;;;4.64;100.00;102139.97;4971172;28;20482;-89
2021/12/18 07:19:49;;;;;;;26.30;11.60;;;;;;;4.60;100.00;102132.81;4963792;28;20042;-89
2021/12/18 07:22:14;;;;;;;27.75;12.10;;;;;;;4.70;100.00;102155.91;4951546;29;20089;-88
2021/12/18 07:24:39;;;;;;;24.63;10.13;;;;;;;4.70;100.00;102166.47;4952592;28;20482;-89
2021/12/18 07:27:05;;;;;;;21.30;10.70;;;;;;;4.69;100.00;102154.16;4944662;28;20026;-89
2021/12/18 07:29:30;;;;;;;27.17;11.57;;;;;;;4.69;100.00;102151.50;4971316;28;20037;-88
2021/12/18 07:31:56;;;;;;;34.55;13.85;;;;;;;4.17;100.00;102061.44;4971698;28;20112;-89
2021/12/18 07:34:22;;;;;;;24.38;10.80;;;;;;;4.72;100.00;102169.13;4970043;28;20089;-89
2021/12/18 07:36:47;;;;;;;27.85;12.23;;;;;;;4.60;100.00;102153.91;4955841;28;20031;-89
2021/12/18 07:39:14;;;;;;;29.02;11.65;;;;;;;4.55;100.00;102150.25;4958968;28;20039;-89
2021/12/18 07:41:39;;;;;;;26.10;12.20;;;;;;;4.72;100.00;102158.59;4964576;28;20105;-89
2021/12/18 07:44:06;;;;;;;29.00;10.95;;;;;;;4.65;100.00;102160.19;4951791;29;20110;-89
2021/12/18 07:46:33;;;;;;;27.05;10.43;;;;;;;4.43;100.00;102086.69;4936216;29;20082;-89
2021/12/18 07:48:59;;;;;;;24.67;11.88;;;;;;;4.93;100.00;102167.91;4964827;28;20030;-88
2021/12/18 07:51:25;;;;;;;28.52;12.18;;;;;;;4.71;100.00;102118.16;4966084;28;20023;-88
2021/12/18 07:53:51;;;;;;;27.30;11.68;;;;;;;5.08;100.00;102163.03;4969173;28;20042;-89
2021/12/18 07:56:17;;;;;;;28.00;11.82;;;;;;;4.86;100.00;102088.66;4949942;28;20054;-88
2021/12/18 07:58:42;;;;;;;27.27;10.55;;;;;;;4.73;100.00;102065.47;4953667;28;20026;-89
2021/12/18 08:01:08;;;;;;;32.17;11.23;;;;;;;4.99;100.00;102098.63;4971776;28;20027;-89
2021/12/18 08:03:35;;;;;;;29.10;12.55;;;;;;;5.29;100.00;102139.75;4971431;28;20046;-89
2021/12/18 08:06:00;;;;;;;26.63;11.07;;;;;;;5.23;100.00;102130.81;4969070;28;20047;-88
2021/12/18 08:08:26;;;;;;;26.67;11.55;;;;;;;5.09;100.00;102083.03;4967089;28;20174;-89
2021/12/18 08:10:51;;;;;;;26.42;11.32;;;;;;;5.28;100.00;102101.06;4966475;28;20392;-88
2021/12/18 08:13:17;;;;;;;23.38;10.27;;;;;;;5.67;99.89;102166.13;4954228;28;20081;-88
2021/12/18 08:15:42;;;;;;;26.98;11.30;;;;;;;5.58;98.86;102142.16;4953608;28;20035;-89
2021/12/18 08:18:08;;;;;;;26.05;12.05;;;;;;;5.54;98.51;102116.53;4970696;28;20027;-89
2021/12/18 08:20:34;;;;;;;28.08;11.45;;;;;;;5.60;98.05;102107.00;4954912;28;20039;-89
2021/12/18 08:23:01;;;;;;;26.10;12.15;;;;;;;5.97;97.92;102148.28;4971254;28;20416;-88
2021/12/18 08:25:28;;;;;;;26.95;11.27;;;;;;;6.14;97.77;102157.44;4966342;28;20097;-88
2021/12/18 08:27:59;;;;;;;28.17;11.52;;;;;;;6.14;96.25;102146.88;4956314;28;20051;-88
2021/12/18 08:30:26;;;;;;;23.65;11.10;;;;;;;6.28;95.24;102161.22;4954502;28;20026;-88
2021/12/18 08:32:52;;;;;;;22.70;9.82;;;;;;;6.44;94.86;102152.75;4954191;28;20031;-88
2021/12/18 08:35:18;;;;;;;28.73;11.10;;;;;;;6.44;94.75;102136.88;4969403;28;20022;-89
2021/12/18 08:37:44;;;;;;;25.95;12.15;;;;;;;6.65;93.41;102138.13;4977969;28;20026;-89
2021/12/18 08:40:11;;;;;;;25.33;10.57;;;;;;;6.73;93.02;102138.25;4980715;28;20022;-89
2021/12/18 08:42:36;;;;;;;22.13;10.10;;;;;;;6.49;92.20;102072.63;4953809;28;20074;-88
2021/12/18 08:45:03;;;;;;;24.00;10.57;;;;;;;6.78;91.21;102103.94;4953674;28;20035;-89
2021/12/18 08:47:28;;;;;;;24.98;10.50;;;;;;;7.08;90.58;102122.94;4953368;28;20029;-88
2021/12/18 08:49:54;;;;;;;27.55;12.20;;;;;;;7.66;91.08;102139.66;4971454;28;20416;-89
2021/12/18 08:52:21;;;;;;;25.05;11.05;;;;;;;7.60;86.50;102016.88;4954318;28;20070;-89
2021/12/18 08:54:47;;;;;;;26.65;11.60;;;;;;;9.52;81.66;102144.09;4953330;28;20030;-89
2021/12/18 08:57:12;;;;;;;28.30;10.90;;;;;;;10.37;72.88;102024.78;4953124;28;20037;-89
2021/12/18 08:59:38;;;;;;;26.15;10.90;;;;;;;11.90;64.36;102106.13;4955566;28;20090;-89
2021/12/18 09:02:05;;;;;;;20.92;10.10;;;;;;;12.58;59.81;102123.50;4948576;28;20022;-88
2021/12/18 09:04:31;;;;;;;21.30;9.15;;;;;;;12.92;59.76;102120.56;4954286;28;20027;-89
2021/12/18 09:07:00;;;;;;;23.42;10.20;;;;;;;13.21;57.65;102113.16;4969529;28;20485;-89
2021/12/18 09:09:25;;;;;;;22.50;8.55;;;;;;;13.72;54.23;102114.38;4953660;28;20552;-89
2021/12/18 09:11:52;;;;;;;18.17;8.45;;;;;;;14.22;53.69;102135.13;4948897;29;20031;-89
2021/12/18 09:14:18;;;;;;;18.23;8.90;;;;;;;14.44;52.83;102132.19;4960497;28;20035;-88
2021/12/18 09:16:43;;;;;;;17.85;9.45;;;;;;;15.31;51.62;102119.09;4968950;28;20085;-88
2021/12/18 09:19:09;;;;;;;18.60;9.35;;;;;;;15.94;49.06;102133.06;4969266;28;20081;-88
2021/12/18 09:21:34;;;;;;;17.05;8.15;;;;;;;16.05;48.50;102152.53;4971115;28;20027;-88
2021/12/18 09:24:00;;;;;;;17.40;8.75;;;;;;;16.09;47.81;102143.50;4969534;28;20022;-89
2021/12/18 09:26:26;;;;;;;22.85;8.48;;;;;;;16.33;47.16;102124.16;4972207;28;20073;-89
2021/12/18 09:28:51;;;;;;;17.08;7.88;;;;;;;16.45;46.92;102126.59;4973222;28;20434;-88
2021/12/18 09:31:17;;;;;;;17.17;8.13;;;;;;;16.22;46.70;102138.72;4947791;28;20062;-89
2021/12/18 09:33:42;;;;;;;15.85;8.07;;;;;;;16.36;46.88;102109.78;4973900;28;20026;-89
2021/12/18 09:36:08;;;;;;;17.98;8.65;;;;;;;16.85;46.32;102088.91;4969078;28;20042;-89
2021/12/18 09:38:33;;;;;;;17.00;8.82;;;;;;;16.91;44.89;102119.19;4973313;28;20674;-89
2021/12/18 09:41:03;;;;;;;15.48;7.70;;;;;;;16.75;44.77;102100.78;4972976;28;20541;-89
2021/12/18 09:43:29;;;;;;;14.32;7.53;;;;;;;16.96;44.33;102105.63;4973802;28;20045;-89
2021/12/18 09:46:16;;;;;;;17.60;8.70;;;;;;;16.85;45.16;102105.03;4953079;28;20401;-89
2021/12/18 09:48:43;;;;;;;15.90;7.85;;;;;;;16.73;44.98;102084.72;4954467;28;20035;-89
2021/12/18 09:51:20;;;;;;;15.68;7.85;;;;;;;16.44;44.50;102094.38;4960917;28;20030;-88
2021/12/18 09:53:46;;;;;;;14.32;7.68;;;;;;;17.29;44.60;102088.59;4955965;28;20023;-89
2021/12/18 09:56:11;;;;;;;15.13;7.22;;;;;;;17.54;42.89;102096.91;4953445;29;20037;-89
2021/12/18 09:58:37;;;;;;;17.85;8.07;;;;;;;17.82;41.98;102088.00;4938086;29;20031;-89
2021/12/18 10:01:03;;;;;;;14.52;7.15;;;;;;;17.71;42.59;102073.97;4965912;28;20046;-89
2021/12/18 10:03:48;;;;;;;17.98;8.43;;;;;;;17.99;43.00;102096.44;4937593;29;20031;-89
2021/12/18 10:06:43;;;;;;;22.38;10.43;;;;;;;18.53;41.93;102080.44;4960914;28;20050;-89
2021/12/18 10:09:09;;;;;;;15.35;7.70;;;;;;;18.08;41.96;102079.13;4955592;29;20030;-89
2021/12/18 10:11:50;;;;;;;17.52;8.30;;;;;;;17.04;42.96;102079.41;4953301;29;20035;-89
2021/12/18 10:14:18;;;;;;;20.83;9.30;;;;;;;16.32;44.92;102081.22;4954430;29;20045;-89
2021/12/18 10:16:47;;;;;;;22.40;9.52;;;;;;;16.42;43.84;102050.53;4944849;28;20035;-89
2021/12/18 10:19:37;;;;;;;20.15;7.75;;;;;;;16.47;45.10;102078.19;4955133;28;20023;-89
2021/12/18 10:22:09;;;;;;;15.13;7.03;;;;;;;16.90;43.72;102070.84;4943015;28;20134;-89
2021/12/18 10:24:38;;;;;;;14.75;7.32;;;;;;;17.02;43.66;102054.38;4972023;28;20081;-89
2021/12/18 10:27:22;;;;;;;14.90;7.00;;;;;;;16.54;44.85;102051.13;4971382;28;20037;-89
2021/12/18 10:29:50;;;;;;;20.13;6.28;;;;;;;16.30;44.40;102046.34;4970992;28;20030;-89
2021/12/18 10:32:18;;;;;;;12.77;6.10;;;;;;;15.86;45.60;102038.44;4955769;28;20033;-89
2021/12/18 10:34:52;;;;;;;11.60;6.53;;;;;;;15.87;45.80;102050.91;4972399;28;20036;-88
2021/12/18 10:37:28;;;;;;;15.02;6.45;;;;;;;16.33;45.14;102050.75;4963573;28;20027;-89
2021/12/18 10:39:53;;;;;;;12.25;4.97;;;;;;;16.95;43.86;102053.66;4955047;28;20487;-89
2021/12/18 10:42:41;;;;;;;13.13;5.72;;;;;;;16.32;43.49;102028.38;4953954;29;20043;-88
2021/12/18 10:45:16;;;;;;;12.27;5.00;;;;;;;15.87;44.48;102060.75;4955094;28;20408;-88
2021/12/18 10:48:02;;;;;;;9.45;4.60;;;;;;;15.81;45.52;102021.53;4973115;28;20027;-89
2021/12/18 10:50:38;;;;;;;11.25;4.65;;;;;;;16.67;44.86;102049.03;4972821;28;20578;-89
2021/12/18 10:53:25;;;;;;;11.57;4.85;;;;;;;17.46;42.73;102016.38;4969034;28;20035;-89
2021/12/18 10:55:54;;;;;;;12.55;5.68;;;;;;;17.56;42.11;102004.44;4939765;29;20031;-89
2021/12/18 10:58:32;;;;;;;12.70;5.53;;;;;;;17.61;42.05;102042.84;4937721;29;20034;-89
2021/12/18 11:00:59;;;;;;;12.48;5.75;;;;;;;17.46;43.06;102047.81;4951695;28;20030;-89
2021/12/18 11:03:46;;;;;;;12.25;6.53;;;;;;;16.34;44.85;102037.28;4942810;28;20212;-89
2021/12/18 11:06:22;;;;;;;11.20;5.55;;;;;;;15.73;46.59;102040.47;4962134;28;20047;-89
2021/12/18 11:08:53;;;;;;;14.07;5.95;;;;;;;15.74;47.18;102039.56;4968022;28;20133;-89
2021/12/18 11:14:19;;;;;;;11.48;5.82;;;;;;;16.43;46.11;102009.31;4972853;28;20046;-89
2021/12/18 11:16:51;;;;;;;12.68;5.18;;;;;;;16.96;43.76;101990.03;4947867;28;20031;-89
2021/12/18 11:19:20;;;;;;;12.18;5.72;;;;;;;17.50;44.12;102020.78;4935686;29;20113;-89
2021/12/18 11:21:51;;;;;;;14.38;6.68;;;;;;;17.31;43.57;102013.25;4964755;28;20478;-89
2021/12/18 11:24:21;;;;;;;13.32;6.10;;;;;;;17.07;43.57;101982.53;4971730;28;20118;-89
2021/12/18 11:26:49;;;;;;;14.00;5.88;;;;;;;17.48;43.97;102011.00;4954381;28;20030;-89
2021/12/18 11:29:28;;;;;;;13.05;5.70;;;;;;;17.89;43.02;102008.78;4955611;28;20058;-89
2021/12/18 11:31:54;;;;;;;12.05;5.60;;;;;;;17.16;43.35;101993.03;4970222;28;20034;-89
2021/12/18 11:34:21;;;;;;;14.73;6.32;;;;;;;16.67;43.98;102008.75;4955439;28;20038;-89
2021/12/18 11:36:49;;;;;;;11.57;6.15;;;;;;;16.93;43.51;102001.72;4970346;28;20030;-89
2021/12/18 11:39:17;;;;;;;11.32;5.90;;;;;;;16.45;44.01;101977.94;4970516;28;20398;-89
2021/12/18 11:41:47;;;;;;;12.07;6.20;;;;;;;15.89;45.99;101994.53;4959376;28;20031;-89
2021/12/18 11:44:27;;;;;;;13.93;6.22;;;;;;;15.51;45.89;101974.81;4936075;28;20035;-89
2021/12/18 11:46:54;;;;;;;13.32;5.95;;;;;;;15.20;48.40;101996.88;4970313;28;20026;-89
2021/12/18 11:49:21;;;;;;;14.10;6.57;;;;;;;15.19;47.57;102005.84;4971350;28;20038;-89
2021/12/18 11:52:03;;;;;;;13.35;6.50;;;;;;;15.45;46.97;102003.56;4968651;28;20422;-89
2021/12/18 11:54:54;;;;;;;11.80;5.55;;;;;;;15.78;46.87;101965.25;4969198;28;20526;-89
2021/12/18 11:57:53;;;;;;;14.65;6.43;;;;;;;15.98;46.01;101919.16;4954208;28;20542;-89
2021/12/18 12:00:19;;;;;;;13.73;5.85;;;;;;;16.68;45.18;101989.88;4912965;28;20035;-89
2021/12/18 12:02:52;;;;;;;12.48;6.03;;;;;;;16.69;45.23;101996.13;4972160;28;20045;-89
2021/12/18 12:05:30;;;;;;;11.75;6.13;;;;;;;16.05;45.16;101974.44;4954680;28;20050;-89
2021/12/18 12:08:19;;;;;;;12.57;6.38;;;;;;;15.01;47.39;101999.03;4969907;28;20065;-89
2021/12/18 12:11:15;;;;;;;10.50;5.68;;;;;;;13.68;50.89;101988.75;4969581;28;20115;-89
2021/12/18 12:13:56;;;;;;;11.90;5.68;;;;;;;12.59;54.48;101983.78;4936539;29;20395;-89
2021/12/18 12:16:47;;;;;;;14.40;6.32;;;;;;;11.77;57.28;101980.88;4963690;28;20105;-89